ANZ659 NZCH-NZQN
Flight info
| Callsign | ANZ659 |
|---|---|
| Flight time | 0h 44m |
| Altitude | 28000 |
| Route | MUKVO2PGUPUT/02 GUPUT Y266 ELRUV |
| Aircraft | A320/M-SDE3FGHIRWY/LB1 |
Departure
| Time | 2026-05-01 09:55 |
|---|---|
| Airport | Christchurch International Airport (NZCH) |
Arrival
| Time | 2026-05-01 10:39 |
|---|---|
| Airport | Queenstown Airport (NZQN) |
| Time | Latitude | Longitude | Altitude | Speed | Heading |
|---|---|---|---|---|---|
| 2026-05-01 09:25 | -43.48939 | 172.53802 | 109 ft | 0 kts | 40° |
| 2026-05-01 09:46 | -43.48940 | 172.53801 | 109 ft | 1 kts | 40° |
| 2026-05-01 09:47 | -43.48953 | 172.53786 | 108 ft | 3 kts | 40° |
| 2026-05-01 09:47 | -43.48968 | 172.53768 | 109 ft | 3 kts | 40° |
| 2026-05-01 09:47 | -43.48984 | 172.53750 | 108 ft | 3 kts | 40° |
| 2026-05-01 09:47 | -43.48999 | 172.53734 | 107 ft | 3 kts | 16° |
| 2026-05-01 09:48 | -43.49017 | 172.53733 | 109 ft | 3 kts | 333° |
| 2026-05-01 09:48 | -43.49031 | 172.53747 | 108 ft | 2 kts | 311° |
| 2026-05-01 09:48 | -43.49033 | 172.53750 | 108 ft | 0 kts | 310° |
| 2026-05-01 09:50 | -43.49026 | 172.53739 | 108 ft | 4 kts | 310° |
| 2026-05-01 09:51 | -43.48997 | 172.53691 | 109 ft | 8 kts | 310° |
| 2026-05-01 09:51 | -43.48949 | 172.53616 | 109 ft | 12 kts | 310° |
| 2026-05-01 09:51 | -43.48924 | 172.53536 | 110 ft | 7 kts | 249° |
| 2026-05-01 09:51 | -43.48955 | 172.53492 | 110 ft | 6 kts | 221° |
| 2026-05-01 09:52 | -43.48990 | 172.53451 | 114 ft | 10 kts | 219° |
| 2026-05-01 09:52 | -43.49081 | 172.53346 | 112 ft | 21 kts | 220° |
| 2026-05-01 09:52 | -43.49195 | 172.53214 | 114 ft | 22 kts | 220° |
| 2026-05-01 09:52 | -43.49315 | 172.53076 | 118 ft | 22 kts | 220° |
| 2026-05-01 09:53 | -43.49432 | 172.52941 | 124 ft | 21 kts | 218° |
| 2026-05-01 09:53 | -43.49503 | 172.52854 | 125 ft | 10 kts | 237° |
| 2026-05-01 09:53 | -43.49509 | 172.52751 | 128 ft | 12 kts | 272° |
| 2026-05-01 09:53 | -43.49496 | 172.52637 | 122 ft | 13 kts | 293° |
| 2026-05-01 09:54 | -43.49431 | 172.52596 | 125 ft | 8 kts | 33° |
| 2026-05-01 09:54 | -43.49404 | 172.52623 | 124 ft | 0 kts | 38° |
| 2026-05-01 09:54 | -43.49337 | 172.52698 | 122 ft | 44 kts | 40° |
| 2026-05-01 09:54 | -43.48920 | 172.53184 | 112 ft | 109 kts | 40° |
| 2026-05-01 09:55 | -43.48212 | 172.54001 | 118 ft | 154 kts | 39° |
| 2026-05-01 09:55 | -43.47404 | 172.54935 | 744 ft | 151 kts | 39° |
| 2026-05-01 09:55 | -43.46499 | 172.55659 | 1380 ft | 151 kts | 25° |
| 2026-05-01 09:55 | -43.45546 | 172.56278 | 1982 ft | 152 kts | 24° |
| 2026-05-01 09:56 | -43.44534 | 172.56905 | 2353 ft | 170 kts | 23° |
| 2026-05-01 09:56 | -43.43385 | 172.57616 | 2620 ft | 192 kts | 23° |
| 2026-05-01 09:56 | -43.42104 | 172.58420 | 2956 ft | 210 kts | 24° |
| 2026-05-01 09:56 | -43.40757 | 172.59275 | 3538 ft | 215 kts | 24° |
| 2026-05-01 09:57 | -43.39290 | 172.59866 | 3963 ft | 231 kts | 2° |
| 2026-05-01 09:57 | -43.37665 | 172.59348 | 4365 ft | 255 kts | 328° |
| 2026-05-01 09:57 | -43.36485 | 172.57505 | 5051 ft | 266 kts | 292° |
| 2026-05-01 09:57 | -43.36285 | 172.54975 | 5863 ft | 273 kts | 258° |
| 2026-05-01 09:58 | -43.37091 | 172.52614 | 6777 ft | 276 kts | 237° |
| 2026-05-01 09:58 | -43.38239 | 172.50493 | 7678 ft | 277 kts | 232° |
| 2026-05-01 09:58 | -43.39485 | 172.48465 | 8565 ft | 279 kts | 231° |
| 2026-05-01 09:58 | -43.40759 | 172.46444 | 9449 ft | 280 kts | 231° |
| 2026-05-01 09:59 | -43.42028 | 172.44406 | 10300 ft | 283 kts | 232° |
| 2026-05-01 09:59 | -43.43339 | 172.42241 | 10590 ft | 306 kts | 233° |
| 2026-05-01 09:59 | -43.44729 | 172.39892 | 10847 ft | 326 kts | 233° |
| 2026-05-01 09:59 | -43.46166 | 172.37431 | 11439 ft | 332 kts | 233° |
| 2026-05-01 10:00 | -43.47598 | 172.34963 | 12108 ft | 336 kts | 233° |
| 2026-05-01 10:00 | -43.49062 | 172.32428 | 12812 ft | 339 kts | 234° |
| 2026-05-01 10:00 | -43.50534 | 172.29871 | 13500 ft | 342 kts | 234° |
| 2026-05-01 10:00 | -43.52020 | 172.27290 | 14167 ft | 346 kts | 234° |
| 2026-05-01 10:01 | -43.53521 | 172.24683 | 14792 ft | 349 kts | 234° |
| 2026-05-01 10:01 | -43.55034 | 172.22047 | 15379 ft | 352 kts | 233° |
| 2026-05-01 10:01 | -43.56559 | 172.19391 | 15957 ft | 356 kts | 233° |
| 2026-05-01 10:01 | -43.58105 | 172.16703 | 16527 ft | 359 kts | 233° |
| 2026-05-01 10:02 | -43.59663 | 172.13983 | 17086 ft | 363 kts | 233° |
| 2026-05-01 10:02 | -43.61199 | 172.11302 | 17643 ft | 366 kts | 233° |
| 2026-05-01 10:02 | -43.62790 | 172.08529 | 18214 ft | 370 kts | 233° |
| 2026-05-01 10:02 | -43.64392 | 172.05731 | 18778 ft | 373 kts | 233° |
| 2026-05-01 10:03 | -43.66006 | 172.02904 | 19290 ft | 377 kts | 233° |
| 2026-05-01 10:03 | -43.67637 | 172.00043 | 19798 ft | 380 kts | 233° |
| 2026-05-01 10:03 | -43.69278 | 171.97164 | 20310 ft | 383 kts | 232° |
| 2026-05-01 10:03 | -43.70934 | 171.94254 | 20823 ft | 387 kts | 232° |
| 2026-05-01 10:04 | -43.72603 | 171.91318 | 21313 ft | 390 kts | 232° |
| 2026-05-01 10:04 | -43.74283 | 171.88358 | 21802 ft | 393 kts | 232° |
| 2026-05-01 10:04 | -43.75976 | 171.85372 | 22270 ft | 396 kts | 232° |
| 2026-05-01 10:04 | -43.77682 | 171.82367 | 22728 ft | 399 kts | 232° |
| 2026-05-01 10:05 | -43.79403 | 171.79336 | 23186 ft | 402 kts | 232° |
| 2026-05-01 10:05 | -43.81134 | 171.76281 | 23636 ft | 405 kts | 232° |
| 2026-05-01 10:05 | -43.82287 | 171.74240 | 23950 ft | 407 kts | 232° |
| 2026-05-01 10:05 | -43.83968 | 171.71075 | 24355 ft | 409 kts | 238° |
| 2026-05-01 10:06 | -43.85427 | 171.67678 | 24740 ft | 411 kts | 239° |
| 2026-05-01 10:06 | -43.86887 | 171.64258 | 25126 ft | 414 kts | 239° |
| 2026-05-01 10:06 | -43.88355 | 171.60818 | 25520 ft | 416 kts | 239° |
| 2026-05-01 10:06 | -43.89830 | 171.57359 | 25906 ft | 418 kts | 239° |
| 2026-05-01 10:07 | -43.91313 | 171.53881 | 26303 ft | 420 kts | 239° |
| 2026-05-01 10:07 | -43.92804 | 171.50390 | 26675 ft | 422 kts | 239° |
| 2026-05-01 10:07 | -43.94297 | 171.46879 | 27041 ft | 424 kts | 239° |
| 2026-05-01 10:07 | -43.95794 | 171.43344 | 27415 ft | 426 kts | 239° |
| 2026-05-01 10:08 | -43.98808 | 171.36218 | 28183 ft | 430 kts | 239° |
| 2026-05-01 10:08 | -44.00320 | 171.32638 | 28479 ft | 431 kts | 239° |
| 2026-05-01 10:09 | -44.03323 | 171.25516 | 28536 ft | 424 kts | 239° |
| 2026-05-01 10:09 | -44.06295 | 171.18458 | 28539 ft | 422 kts | 239° |
| 2026-05-01 10:10 | -44.09245 | 171.11408 | 28536 ft | 421 kts | 239° |
| 2026-05-01 10:10 | -44.13660 | 171.00831 | 28540 ft | 421 kts | 240° |
| 2026-05-01 10:11 | -44.16603 | 170.93782 | 28546 ft | 421 kts | 240° |
| 2026-05-01 10:11 | -44.19547 | 170.86718 | 28551 ft | 421 kts | 240° |
| 2026-05-01 10:12 | -44.22476 | 170.79655 | 28554 ft | 421 kts | 240° |
| 2026-05-01 10:13 | -44.26864 | 170.69052 | 28564 ft | 420 kts | 240° |
| 2026-05-01 10:13 | -44.29760 | 170.62027 | 28566 ft | 420 kts | 240° |
| 2026-05-01 10:14 | -44.34112 | 170.51411 | 28575 ft | 420 kts | 240° |
| 2026-05-01 10:14 | -44.36776 | 170.44909 | 28573 ft | 419 kts | 240° |
| 2026-05-01 10:15 | -44.39672 | 170.37828 | 28576 ft | 419 kts | 240° |
| 2026-05-01 10:15 | -44.42562 | 170.30752 | 28582 ft | 418 kts | 240° |
| 2026-05-01 10:16 | -44.45440 | 170.23680 | 28580 ft | 418 kts | 241° |
| 2026-05-01 10:17 | -44.49736 | 170.13067 | 28585 ft | 417 kts | 241° |
| 2026-05-01 10:17 | -44.54023 | 170.02454 | 28588 ft | 417 kts | 241° |
| 2026-05-01 10:18 | -44.58288 | 169.91840 | 28574 ft | 416 kts | 241° |
| 2026-05-01 10:19 | -44.61117 | 169.84769 | 28578 ft | 415 kts | 241° |
| 2026-05-01 10:19 | -44.63944 | 169.77699 | 28588 ft | 415 kts | 241° |
| 2026-05-01 10:20 | -44.68181 | 169.67080 | 28581 ft | 415 kts | 241° |
| 2026-05-01 10:20 | -44.70990 | 169.59993 | 28591 ft | 415 kts | 241° |
| 2026-05-01 10:21 | -44.75163 | 169.49453 | 27958 ft | 403 kts | 241° |
| 2026-05-01 10:21 | -44.76520 | 169.46022 | 27435 ft | 399 kts | 242° |
| 2026-05-01 10:22 | -44.79188 | 169.39261 | 26430 ft | 392 kts | 242° |
| 2026-05-01 10:22 | -44.81700 | 169.32525 | 25449 ft | 385 kts | 249° |
| 2026-05-01 10:23 | -44.82544 | 169.28960 | 24962 ft | 382 kts | 253° |
| 2026-05-01 10:23 | -44.84137 | 169.21875 | 24032 ft | 378 kts | 253° |
| 2026-05-01 10:23 | -44.84930 | 169.18358 | 23547 ft | 374 kts | 253° |
| 2026-05-01 10:24 | -44.86484 | 169.11436 | 22658 ft | 366 kts | 253° |
| 2026-05-01 10:24 | -44.88008 | 169.04660 | 21777 ft | 359 kts | 253° |
| 2026-05-01 10:25 | -44.89495 | 168.97991 | 20883 ft | 353 kts | 253° |
| 2026-05-01 10:25 | -44.90795 | 168.91393 | 19978 ft | 346 kts | 263° |
| 2026-05-01 10:26 | -44.90916 | 168.88109 | 19532 ft | 344 kts | 273° |
| 2026-05-01 10:26 | -44.90799 | 168.84941 | 19100 ft | 342 kts | 273° |
| 2026-05-01 10:26 | -44.90563 | 168.78270 | 18137 ft | 338 kts | 273° |
| 2026-05-01 10:27 | -44.90340 | 168.71715 | 17237 ft | 332 kts | 273° |
| 2026-05-01 10:27 | -44.90525 | 168.65281 | 16348 ft | 328 kts | 258° |
| 2026-05-01 10:28 | -44.91251 | 168.62287 | 15915 ft | 328 kts | 246° |
| 2026-05-01 10:28 | -44.93298 | 168.56565 | 15031 ft | 325 kts | 245° |
| 2026-05-01 10:28 | -44.94305 | 168.53716 | 14590 ft | 324 kts | 245° |
| 2026-05-01 10:29 | -44.96304 | 168.48024 | 13520 ft | 325 kts | 245° |
| 2026-05-01 10:29 | -44.97306 | 168.45164 | 12725 ft | 322 kts | 245° |
| 2026-05-01 10:30 | -44.99274 | 168.39559 | 11811 ft | 316 kts | 245° |
| 2026-05-01 10:30 | -45.01217 | 168.34032 | 10961 ft | 312 kts | 245° |
| 2026-05-01 10:31 | -45.03394 | 168.28839 | 10370 ft | 296 kts | 229° |
| 2026-05-01 10:31 | -45.06663 | 168.25714 | 9829 ft | 284 kts | 203° |
| 2026-05-01 10:32 | -45.10590 | 168.25087 | 9568 ft | 290 kts | 175° |
| 2026-05-01 10:32 | -45.12550 | 168.25796 | 9270 ft | 293 kts | 161° |
| 2026-05-01 10:32 | -45.15640 | 168.29521 | 8466 ft | 302 kts | 120° |
| 2026-05-01 10:33 | -45.16401 | 168.35307 | 7579 ft | 306 kts | 78° |
| 2026-05-01 10:33 | -45.14753 | 168.40749 | 6676 ft | 292 kts | 59° |
| 2026-05-01 10:34 | -45.13817 | 168.43240 | 6274 ft | 282 kts | 59° |
| 2026-05-01 10:34 | -45.12906 | 168.45665 | 5867 ft | 274 kts | 60° |
| 2026-05-01 10:34 | -45.12025 | 168.48010 | 5476 ft | 266 kts | 60° |
| 2026-05-01 10:35 | -45.10345 | 168.52482 | 4737 ft | 249 kts | 60° |
| 2026-05-01 10:35 | -45.09551 | 168.54596 | 4393 ft | 235 kts | 60° |
| 2026-05-01 10:35 | -45.08817 | 168.56555 | 4067 ft | 216 kts | 60° |
| 2026-05-01 10:35 | -45.08134 | 168.58377 | 3800 ft | 203 kts | 60° |
| 2026-05-01 10:36 | -45.06905 | 168.61645 | 3237 ft | 172 kts | 60° |
| 2026-05-01 10:36 | -45.06365 | 168.63070 | 2986 ft | 157 kts | 60° |
| 2026-05-01 10:36 | -45.05869 | 168.64350 | 2843 ft | 144 kts | 60° |
| 2026-05-01 10:37 | -45.05398 | 168.65585 | 2600 ft | 140 kts | 60° |
| 2026-05-01 10:37 | -45.04348 | 168.67884 | 2160 ft | 140 kts | 45° |
| 2026-05-01 10:37 | -45.03639 | 168.68832 | 2038 ft | 141 kts | 38° |
| 2026-05-01 10:38 | -45.02928 | 168.69778 | 1815 ft | 139 kts | 50° |
| 2026-05-01 10:38 | -45.02440 | 168.70942 | 1613 ft | 136 kts | 68° |
| 2026-05-01 10:38 | -45.02207 | 168.72216 | 1415 ft | 134 kts | 77° |
| 2026-05-01 10:38 | -45.02008 | 168.73520 | 1228 ft | 133 kts | 74° |
| 2026-05-01 10:39 | -45.01817 | 168.74752 | 1166 ft | 117 kts | 76° |
| 2026-05-01 10:39 | -45.01697 | 168.75485 | 1168 ft | 46 kts | 77° |
| 2026-05-01 10:39 | -45.01657 | 168.75732 | 1168 ft | 10 kts | 75° |
| 2026-05-01 10:39 | -45.01640 | 168.75809 | 1166 ft | 6 kts | 123° |
| 2026-05-01 10:40 | -45.01658 | 168.75785 | 1166 ft | 3 kts | 246° |
| 2026-05-01 10:40 | -45.01669 | 168.75717 | 1164 ft | 11 kts | 259° |
| 2026-05-01 10:40 | -45.01683 | 168.75602 | 1165 ft | 13 kts | 259° |
| 2026-05-01 10:40 | -45.01705 | 168.75467 | 1168 ft | 16 kts | 256° |
| 2026-05-01 10:41 | -45.01732 | 168.75298 | 1167 ft | 19 kts | 258° |
| 2026-05-01 10:41 | -45.01759 | 168.75100 | 1168 ft | 22 kts | 260° |
| 2026-05-01 10:41 | -45.01834 | 168.74630 | 1165 ft | 27 kts | 258° |
| 2026-05-01 10:42 | -45.01875 | 168.74364 | 1168 ft | 28 kts | 257° |
| 2026-05-01 10:42 | -45.01907 | 168.74176 | 1168 ft | 14 kts | 255° |
| 2026-05-01 10:42 | -45.01992 | 168.74090 | 1164 ft | 16 kts | 202° |
| 2026-05-01 10:42 | -45.02050 | 168.74056 | 1163 ft | 5 kts | 193° |
| 2026-05-01 10:43 | -45.02091 | 168.74081 | 1163 ft | 8 kts | 137° |
| 2026-05-01 10:43 | -45.02117 | 168.74085 | 1164 ft | 1 kts | 208° |
| 2026-05-01 10:43 | -45.02133 | 168.74069 | 1163 ft | 4 kts | 210° |
| 2026-05-01 10:43 | -45.02147 | 168.74061 | 1163 ft | 1 kts | 205° |
| 2026-05-01 10:44 | -45.02147 | 168.74060 | 1163 ft | 0 kts | 205° |